Time;durP1;ratioP1;P1;durP2;ratioP2;P2;SDS_P1;SDS_P2;PMS_P1;PMS_P2;Temp;Humidity;BMP_temperature;BMP_pressure;BME280_temperature;BME280_humidity;BME280_pressure;Samples;Min_cycle;Max_cycle;Signal;HPM_P1;HPM_P2
2021/06/24 00:00:50;;;;;;;19.65;6.68;;;;;;;;;;5016925;28;20367;-67
2021/06/24 00:03:16;;;;;;;19.98;6.03;;;;;;;;;;5015620;28;20033;-69
2021/06/24 00:05:43;;;;;;;19.17;6.25;;;;;;;;;;5016627;28;20478;-68
2021/06/24 00:08:10;;;;;;;25.02;6.13;;;;;;;;;;5017064;28;20049;-68
2021/06/24 00:10:38;;;;;;;19.60;5.68;;;;;;;;;;5016397;28;20152;-69
2021/06/24 00:13:05;;;;;;;22.15;6.43;;;;;;;;;;5016679;28;20065;-67
2021/06/24 00:15:31;;;;;;;22.65;7.10;;;;;;;;;;5016692;28;20022;-67
2021/06/24 00:17:58;;;;;;;17.88;6.50;;;;;;;;;;5015281;28;20477;-69
2021/06/24 00:20:24;;;;;;;25.85;7.78;;;;;;;;;;5015524;28;20390;-68
2021/06/24 00:22:51;;;;;;;19.98;6.38;;;;;;;;;;5016501;28;20029;-67
2021/06/24 00:25:17;;;;;;;25.02;6.55;;;;;;;;;;5015185;28;20022;-68
2021/06/24 00:27:43;;;;;;;27.73;7.38;;;;;;;;;;5016406;28;20014;-66
2021/06/24 00:30:10;;;;;;;35.42;7.00;;;;;;;;;;5016299;28;20104;-67
2021/06/24 00:32:36;;;;;;;19.25;7.32;;;;;;;;;;5014974;28;20084;-66
2021/06/24 00:35:02;;;;;;;27.90;6.80;;;;;;;;;;5016279;28;20042;-67
2021/06/24 00:37:29;;;;;;;20.27;6.47;;;;;;;;;;5016248;28;20014;-68
2021/06/24 00:39:56;;;;;;;25.92;6.43;;;;;;;;;;5016481;28;20394;-68
2021/06/24 00:42:23;;;;;;;24.38;6.65;;;;;;;;;;5016184;28;20105;-67
2021/06/24 00:44:50;;;;;;;30.75;8.18;;;;;;;;;;5015045;28;20023;-69
2021/06/24 00:47:16;;;;;;;27.63;7.25;;;;;;;;;;5016068;28;20030;-67
2021/06/24 00:49:43;;;;;;;24.88;6.45;;;;;;;;;;5015667;28;20434;-68
2021/06/24 00:52:09;;;;;;;18.20;6.47;;;;;;;;;;5015944;28;20450;-66
2021/06/24 00:54:35;;;;;;;24.40;6.38;;;;;;;;;;5015981;28;20030;-68
2021/06/24 00:57:02;;;;;;;18.85;5.65;;;;;;;;;;5015938;28;20022;-68
2021/06/24 00:59:28;;;;;;;22.10;5.78;;;;;;;;;;5015552;28;20030;-67
2021/06/24 01:01:54;;;;;;;15.48;6.18;;;;;;;;;;5015488;28;20017;-65
2021/06/24 01:04:24;;;;;;;20.73;5.35;;;;;;;;;;5015730;28;20076;-65
2021/06/24 01:06:50;;;;;;;16.48;5.55;;;;;;;;;;5015658;28;20105;-65
2021/06/24 01:09:17;;;;;;;15.80;5.45;;;;;;;;;;5014281;28;20030;-66
2021/06/24 01:11:43;;;;;;;23.27;5.78;;;;;;;;;;5014287;28;20029;-65
2021/06/24 01:14:09;;;;;;;23.85;6.35;;;;;;;;;;5014278;28;20022;-65
2021/06/24 01:16:36;;;;;;;20.65;5.45;;;;;;;;;;5014217;28;20597;-65
2021/06/24 01:19:03;;;;;;;22.58;6.03;;;;;;;;;;5015159;28;20038;-68
2021/06/24 01:21:29;;;;;;;16.20;5.28;;;;;;;;;;5015135;28;20406;-67
2021/06/24 01:23:55;;;;;;;24.40;6.30;;;;;;;;;;5015366;28;20058;-67
2021/06/24 01:26:22;;;;;;;18.17;6.20;;;;;;;;;;5015343;28;20022;-65
2021/06/24 01:28:48;;;;;;;23.98;5.82;;;;;;;;;;5013907;28;20080;-65
2021/06/24 01:31:15;;;;;;;16.33;6.13;;;;;;;;;;5015223;28;20079;-65
2021/06/24 01:33:41;;;;;;;24.65;7.07;;;;;;;;;;5013574;28;20430;-66
2021/06/24 01:36:08;;;;;;;25.85;6.60;;;;;;;;;;5015168;28;20145;-67
2021/06/24 01:38:38;;;;;;;19.15;5.70;;;;;;;;;;5013766;28;20038;-67
2021/06/24 01:41:06;;;;;;;16.05;5.65;;;;;;;;;;5015013;28;20099;-64
2021/06/24 01:43:32;;;;;;;19.88;6.40;;;;;;;;;;5014966;28;20043;-66
2021/06/24 01:45:59;;;;;;;22.10;6.68;;;;;;;;;;5015038;28;20026;-65
2021/06/24 01:48:26;;;;;;;23.80;7.85;;;;;;;;;;5013567;28;20034;-66
2021/06/24 01:50:57;;;;;;;22.60;7.20;;;;;;;;;;5013557;28;20057;-66
2021/06/24 01:53:23;;;;;;;28.85;6.63;;;;;;;;;;5014544;28;20018;-65
2021/06/24 01:55:50;;;;;;;30.65;8.23;;;;;;;;;;5014629;28;20470;-66
2021/06/24 01:58:21;;;;;;;22.45;7.70;;;;;;;;;;5014748;28;20075;-66
2021/06/24 02:00:47;;;;;;;;;;;;;;;;;;5013936;28;20108;-65
2021/06/24 02:03:14;;;;;;;20.63;7.00;;;;;;;;;;5013112;28;19906;-64
2021/06/24 02:05:41;;;;;;;26.65;7.97;;;;;;;;;;5014603;28;20026;-66
2021/06/24 02:08:21;;;;;;;30.15;9.00;;;;;;;;;;5014542;28;20030;-65
2021/06/24 02:10:48;;;;;;;25.48;9.38;;;;;;;;;;5013296;28;20099;-66
2021/06/24 02:13:15;;;;;;;23.85;7.95;;;;;;;;;;5014477;28;20131;-66
2021/06/24 02:15:41;;;;;;;30.20;8.13;;;;;;;;;;5014397;28;20352;-66
2021/06/24 02:18:08;;;;;;;26.25;8.68;;;;;;;;;;5014619;28;20025;-65
2021/06/24 02:20:34;;;;;;;26.42;8.35;;;;;;;;;;5014668;28;20080;-66
2021/06/24 02:23:01;;;;;;;20.23;7.85;;;;;;;;;;5014418;28;20018;-66
2021/06/24 02:25:27;;;;;;;21.90;8.85;;;;;;;;;;5014383;28;20351;-66
2021/06/24 02:27:54;;;;;;;31.17;7.82;;;;;;;;;;5014264;28;20022;-65
2021/06/24 02:30:20;;;;;;;30.25;8.68;;;;;;;;;;5014179;28;20466;-66
2021/06/24 02:32:47;;;;;;;21.17;8.05;;;;;;;;;;5014127;28;20100;-65
2021/06/24 02:35:14;;;;;;;20.77;8.05;;;;;;;;;;5012414;28;20050;-65
2021/06/24 02:37:42;;;;;;;28.60;8.25;;;;;;;;;;5013694;28;20037;-65
2021/06/24 02:40:08;;;;;;;19.88;8.57;;;;;;;;;;5013942;28;20577;-64
2021/06/24 02:42:35;;;;;;;21.25;8.48;;;;;;;;;;5014013;28;20033;-65
2021/06/24 02:45:01;;;;;;;25.63;7.80;;;;;;;;;;5013948;28;20029;-66
2021/06/24 02:47:27;;;;;;;22.80;8.25;;;;;;;;;;5013633;28;20061;-66
2021/06/24 02:49:53;;;;;;;25.40;7.95;;;;;;;;;;5013495;28;20084;-66
2021/06/24 02:52:20;;;;;;;19.70;7.65;;;;;;;;;;5014027;28;20030;-66
2021/06/24 02:54:46;;;;;;;23.65;8.55;;;;;;;;;;5013717;28;20030;-66
2021/06/24 02:57:12;;;;;;;29.92;8.57;;;;;;;;;;5013694;28;20522;-65
2021/06/24 02:59:38;;;;;;;23.73;8.15;;;;;;;;;;5013951;28;20060;-66
2021/06/24 03:02:04;;;;;;;26.95;8.40;;;;;;;;;;5012356;28;20032;-65
2021/06/24 03:04:31;;;;;;;29.95;8.98;;;;;;;;;;5013578;28;20014;-68
2021/06/24 03:06:57;;;;;;;38.35;9.10;;;;;;;;;;5013599;28;20410;-66
2021/06/24 03:09:23;;;;;;;25.83;8.93;;;;;;;;;;5012971;28;20026;-66
2021/06/24 03:11:50;;;;;;;24.67;8.60;;;;;;;;;;5012139;28;20061;-66
2021/06/24 03:14:17;;;;;;;29.05;9.13;;;;;;;;;;5013411;28;20516;-67
2021/06/24 03:16:44;;;;;;;31.23;8.73;;;;;;;;;;5013216;28;20378;-66
2021/06/24 03:19:10;;;;;;;24.70;8.65;;;;;;;;;;5013419;28;20105;-66
2021/06/24 03:21:36;;;;;;;27.60;9.05;;;;;;;;;;5013362;28;20026;-67
2021/06/24 03:24:03;;;;;;;26.83;9.10;;;;;;;;;;5013100;28;20379;-66
2021/06/24 03:26:30;;;;;;;23.58;8.00;;;;;;;;;;5012059;28;20428;-67
2021/06/24 03:28:56;;;;;;;31.23;9.05;;;;;;;;;;5013213;28;20030;-66
2021/06/24 03:31:23;;;;;;;27.02;8.02;;;;;;;;;;5013272;28;20030;-67
2021/06/24 03:33:49;;;;;;;25.40;9.00;;;;;;;;;;5013032;28;20053;-66
2021/06/24 03:36:16;;;;;;;29.05;9.10;;;;;;;;;;5013285;28;20088;-67
2021/06/24 03:38:45;;;;;;;31.45;9.82;;;;;;;;;;5012963;28;20351;-67
2021/06/24 03:41:12;;;;;;;29.10;9.55;;;;;;;;;;5013110;28;20029;-67
2021/06/24 03:43:39;;;;;;;30.45;10.27;;;;;;;;;;5013228;28;20415;-66
2021/06/24 03:46:05;;;;;;;27.63;9.98;;;;;;;;;;5013262;28;20492;-65
2021/06/24 03:48:31;;;;;;;26.77;9.68;;;;;;;;;;5013082;28;20030;-65
2021/06/24 03:50:58;;;;;;;24.38;9.27;;;;;;;;;;5011792;28;20022;-66
2021/06/24 03:53:24;;;;;;;20.95;8.82;;;;;;;;;;5013024;28;20362;-65
2021/06/24 03:55:50;;;;;;;24.67;9.15;;;;;;;;;;5013100;28;20022;-67
2021/06/24 03:58:16;;;;;;;23.45;8.55;;;;;;;;;;5012774;28;20105;-66
2021/06/24 04:00:44;;;;;;;26.98;8.25;;;;;;;;;;5012742;28;20474;-65
2021/06/24 04:03:11;;;;;;;30.65;9.55;;;;;;;;;;5011725;28;20509;-66
2021/06/24 04:05:37;;;;;;;22.02;9.10;;;;;;;;;;5012977;28;20108;-66
2021/06/24 04:08:05;;;;;;;26.45;9.88;;;;;;;;;;5012951;28;20029;-67
2021/06/24 04:10:32;;;;;;;35.38;10.05;;;;;;;;;;5011589;28;20025;-66
2021/06/24 04:12:59;;;;;;;34.22;9.55;;;;;;;;;;5012907;28;20029;-66
2021/06/24 04:15:26;;;;;;;26.88;9.57;;;;;;;;;;5012837;28;20022;-66
2021/06/24 04:17:53;;;;;;;26.95;10.18;;;;;;;;;;5011538;28;20034;-65
2021/06/24 04:20:19;;;;;;;33.40;10.93;;;;;;;;;;5014001;28;20060;-66
2021/06/24 04:22:46;;;;;;;21.10;8.93;;;;;;;;;;5016510;28;20033;-66
2021/06/24 04:25:14;;;;;;;25.98;9.80;;;;;;;;;;5015180;28;20026;-66
2021/06/24 04:27:40;;;;;;;29.85;10.18;;;;;;;;;;5015205;28;20022;-69
2021/06/24 04:30:08;;;;;;;27.95;9.95;;;;;;;;;;5016332;28;20037;-68
2021/06/24 04:32:34;;;;;;;36.83;10.55;;;;;;;;;;5014384;28;20033;-67
2021/06/24 04:35:00;;;;;;;28.63;9.90;;;;;;;;;;5016222;28;20072;-69
2021/06/24 04:37:26;;;;;;;29.48;9.93;;;;;;;;;;5016263;28;20034;-65
2021/06/24 04:39:53;;;;;;;19.80;9.23;;;;;;;;;;5016225;28;20478;-65
2021/06/24 04:42:19;;;;;;;28.00;12.00;;;;;;;;;;5016411;28;20121;-66
2021/06/24 04:44:46;;;;;;;21.83;11.55;;;;;;;;;;5014912;28;20068;-66
2021/06/24 04:47:12;;;;;;;30.50;11.68;;;;;;;;;;5016051;28;20653;-65
2021/06/24 04:49:38;;;;;;;26.92;10.35;;;;;;;;;;5015961;28;20101;-65
2021/06/24 04:52:05;;;;;;;37.10;11.50;;;;;;;;;;5016019;28;20028;-65
2021/06/24 04:54:31;;;;;;;33.13;11.98;;;;;;;;;;5014629;28;20029;-65
2021/06/24 04:56:57;;;;;;;31.08;11.73;;;;;;;;;;5015814;28;20030;-65
2021/06/24 04:59:23;;;;;;;29.95;11.50;;;;;;;;;;5015810;28;20033;-66
2021/06/24 05:01:50;;;;;;;33.03;12.45;;;;;;;;;;5014486;28;20030;-67
2021/06/24 05:04:17;;;;;;;27.88;12.10;;;;;;;;;;5015788;28;20018;-66
2021/06/24 05:06:48;;;;;;;29.13;12.23;;;;;;;;;;5015748;28;20022;-67
2021/06/24 05:09:15;;;;;;;32.92;12.55;;;;;;;;;;5015735;28;20029;-66
2021/06/24 05:11:41;;;;;;;33.13;12.93;;;;;;;;;;5014362;28;20058;-66
2021/06/24 05:14:08;;;;;;;41.92;12.65;;;;;;;;;;5014251;28;20048;-65
2021/06/24 05:16:35;;;;;;;37.70;12.95;;;;;;;;;;5015613;28;20470;-68
2021/06/24 05:19:02;;;;;;;30.08;12.65;;;;;;;;;;5015166;28;20030;-66
2021/06/24 05:21:28;;;;;;;32.08;12.40;;;;;;;;;;5015409;28;20076;-66
2021/06/24 05:23:55;;;;;;;29.88;11.60;;;;;;;;;;5014086;28;20026;-66
2021/06/24 05:26:21;;;;;;;37.78;12.32;;;;;;;;;;5015230;28;20034;-66
2021/06/24 05:28:47;;;;;;;32.92;13.02;;;;;;;;;;5014972;28;20470;-66
2021/06/24 05:31:14;;;;;;;32.22;11.15;;;;;;;;;;5013405;28;20030;-69
2021/06/24 05:33:41;;;;;;;33.00;15.35;;;;;;;;;;5015051;28;20075;-67
2021/06/24 05:36:07;;;;;;;41.78;12.88;;;;;;;;;;5015193;28;20505;-69
2021/06/24 05:38:33;;;;;;;25.83;11.85;;;;;;;;;;5015117;28;20021;-69
2021/06/24 05:41:00;;;;;;;36.97;13.27;;;;;;;;;;5013640;28;20447;-68
2021/06/24 05:43:26;;;;;;;30.92;12.25;;;;;;;;;;5014721;28;20493;-65
2021/06/24 05:45:52;;;;;;;38.88;13.25;;;;;;;;;;5014945;28;20038;-68
2021/06/24 05:48:19;;;;;;;37.95;14.18;;;;;;;;;;5014942;28;20014;-67
2021/06/24 05:50:45;;;;;;;32.53;12.50;;;;;;;;;;5013472;28;20061;-70
2021/06/24 05:53:11;;;;;;;33.65;13.13;;;;;;;;;;5014768;28;20470;-67
2021/06/24 05:55:50;;;;;;;32.28;13.60;;;;;;;;;;5014612;28;20033;-69
2021/06/24 05:58:21;;;;;;;28.00;11.93;;;;;;;;;;5015005;28;20474;-70
2021/06/24 06:00:47;;;;;;;31.85;11.02;;;;;;;;;;5014658;28;20034;-67
2021/06/24 06:03:14;;;;;;;31.02;11.32;;;;;;;;;;5014578;28;20113;-70
2021/06/24 06:05:40;;;;;;;27.95;11.50;;;;;;;;;;5013234;28;20029;-69
2021/06/24 06:08:07;;;;;;;34.88;11.38;;;;;;;;;;5014590;28;20058;-68
2021/06/24 06:10:34;;;;;;;32.88;10.95;;;;;;;;;;5014288;28;20065;-67
2021/06/24 06:13:00;;;;;;;41.70;11.43;;;;;;;;;;5014315;28;20084;-67
2021/06/24 06:15:27;;;;;;;28.63;11.02;;;;;;;;;;5014290;28;20450;-70
2021/06/24 06:17:53;;;;;;;25.38;10.25;;;;;;;;;;5014406;28;20108;-69
2021/06/24 06:20:20;;;;;;;30.33;11.43;;;;;;;;;;5014329;28;20109;-68
2021/06/24 06:22:46;;;;;;;36.47;11.80;;;;;;;;;;5014289;28;20073;-69
2021/06/24 06:25:14;;;;;;;42.17;11.48;;;;;;;;;;5014188;28;20429;-69
2021/06/24 06:27:40;;;;;;;31.48;11.93;;;;;;;;;;5014226;28;20471;-68
2021/06/24 06:30:07;;;;;;;29.30;11.18;;;;;;;;;;5013965;28;20037;-68
2021/06/24 06:32:33;;;;;;;33.53;10.80;;;;;;;;;;5013832;28;20093;-66
2021/06/24 06:34:59;;;;;;;28.55;11.93;;;;;;;;;;5012304;28;20141;-66
2021/06/24 06:37:25;;;;;;;40.35;11.50;;;;;;;;;;5013881;28;20057;-69
2021/06/24 06:39:52;;;;;;;33.45;12.27;;;;;;;;;;5012565;28;20121;-70
2021/06/24 06:42:18;;;;;;;29.73;11.43;;;;;;;;;;5011999;28;20455;-68
2021/06/24 06:44:45;;;;;;;27.35;10.48;;;;;;;;;;5013634;28;20112;-70
2021/06/24 06:47:11;;;;;;;23.75;10.05;;;;;;;;;;5012578;28;20029;-68
2021/06/24 06:49:37;;;;;;;29.80;10.20;;;;;;;;;;5013704;28;20038;-66
2021/06/24 06:52:03;;;;;;;20.77;9.80;;;;;;;;;;5013655;28;20037;-67
2021/06/24 06:54:30;;;;;;;33.80;10.77;;;;;;;;;;5013973;28;20084;-66
2021/06/24 06:56:56;;;;;;;26.98;9.63;;;;;;;;;;5013738;28;20022;-66
2021/06/24 06:59:22;;;;;;;31.05;10.32;;;;;;;;;;5012937;28;20041;-68
2021/06/24 07:01:49;;;;;;;24.27;9.50;;;;;;;;;;5028944;28;20110;-64
2021/06/24 07:04:15;;;;;;;26.17;9.13;;;;;;;;;;5027450;28;20025;-68
2021/06/24 07:06:42;;;;;;;21.67;9.30;;;;;;;;;;5013446;28;20018;-70
2021/06/24 07:09:08;;;;;;;26.48;8.93;;;;;;;;;;5012084;28;20378;-67
2021/06/24 07:11:35;;;;;;;30.33;9.90;;;;;;;;;;5012091;28;20112;-69
2021/06/24 07:14:01;;;;;;;28.42;9.35;;;;;;;;;;5013105;28;20077;-67
2021/06/24 07:16:27;;;;;;;27.70;9.48;;;;;;;;;;5013047;28;20072;-67
2021/06/24 07:18:54;;;;;;;24.48;9.35;;;;;;;;;;5013425;28;20026;-68
2021/06/24 07:21:20;;;;;;;27.30;8.43;;;;;;;;;;5013251;28;20022;-68
2021/06/24 07:23:46;;;;;;;27.23;9.57;;;;;;;;;;5013271;28;20018;-68
2021/06/24 07:26:13;;;;;;;31.60;9.20;;;;;;;;;;5010852;28;20054;-69
2021/06/24 07:28:39;;;;;;;27.17;8.35;;;;;;;;;;5013334;28;20030;-70
2021/06/24 07:31:05;;;;;;;29.23;9.30;;;;;;;;;;5013231;28;20033;-67
2021/06/24 07:33:34;;;;;;;23.95;8.18;;;;;;;;;;5013234;28;20072;-69
2021/06/24 07:36:00;;;;;;;22.77;8.40;;;;;;;;;;5009606;28;20048;-67
2021/06/24 07:38:27;;;;;;;27.63;8.68;;;;;;;;;;5011799;28;20026;-68
2021/06/24 07:40:53;;;;;;;26.95;8.93;;;;;;;;;;5010956;28;20026;-68
2021/06/24 07:43:19;;;;;;;20.40;8.30;;;;;;;;;;5011850;28;20022;-71
2021/06/24 07:45:46;;;;;;;28.90;8.68;;;;;;;;;;5011431;28;20022;-69
2021/06/24 07:48:12;;;;;;;26.52;8.43;;;;;;;;;;5011528;28;20029;-69
2021/06/24 07:50:38;;;;;;;36.42;9.30;;;;;;;;;;5011120;28;20374;-68
2021/06/24 07:53:05;;;;;;;33.47;8.30;;;;;;;;;;5012742;28;20037;-68
2021/06/24 07:55:34;;;;;;;22.85;8.27;;;;;;;;;;5016281;28;20030;-71
2021/06/24 07:58:04;;;;;;;26.45;7.68;;;;;;;;;;5015197;28;20026;-68
2021/06/24 08:00:31;;;;;;;33.65;7.80;;;;;;;;;;5015900;28;20109;-71
2021/06/24 08:02:57;;;;;;;26.80;6.90;;;;;;;;;;5015305;28;20030;-67
2021/06/24 08:05:24;;;;;;;24.63;6.70;;;;;;;;;;5015169;28;20026;-69
2021/06/24 08:07:50;;;;;;;27.67;7.00;;;;;;;;;;5015798;28;20072;-69
2021/06/24 08:10:17;;;;;;;27.25;6.47;;;;;;;;;;5016614;28;20073;-70
2021/06/24 08:12:44;;;;;;;22.73;6.80;;;;;;;;;;5015630;28;20485;-67
2021/06/24 08:15:12;;;;;;;24.90;7.28;;;;;;;;;;5015449;28;20030;-68
2021/06/24 08:17:39;;;;;;;25.63;7.43;;;;;;;;;;5016438;28;20057;-69
2021/06/24 08:20:06;;;;;;;27.15;8.00;;;;;;;;;;5016330;28;20076;-68
2021/06/24 08:22:32;;;;;;;23.65;6.75;;;;;;;;;;5016507;28;20355;-68
2021/06/24 08:24:59;;;;;;;24.85;7.00;;;;;;;;;;5016416;28;20057;-68
2021/06/24 08:27:25;;;;;;;30.30;7.30;;;;;;;;;;5016457;28;20025;-68
2021/06/24 08:29:51;;;;;;;18.52;6.50;;;;;;;;;;5016282;28;20029;-68
2021/06/24 08:32:18;;;;;;;29.85;6.20;;;;;;;;;;5014928;28;20026;-69
2021/06/24 08:34:44;;;;;;;29.98;6.40;;;;;;;;;;5014623;28;20053;-72
2021/06/24 08:37:10;;;;;;;29.45;7.00;;;;;;;;;;5015873;28;20037;-68
2021/06/24 08:39:37;;;;;;;20.65;7.13;;;;;;;;;;5016263;28;20072;-69
2021/06/24 08:42:04;;;;;;;33.05;6.93;;;;;;;;;;5016204;28;20064;-70
2021/06/24 08:44:31;;;;;;;31.58;7.28;;;;;;;;;;5016090;28;20018;-69
2021/06/24 08:46:59;;;;;;;35.45;7.15;;;;;;;;;;5016040;28;20018;-71
2021/06/24 08:49:26;;;;;;;30.05;7.13;;;;;;;;;;5016168;28;20475;-70
2021/06/24 08:51:53;;;;;;;26.98;7.55;;;;;;;;;;5016075;28;20460;-68
2021/06/24 08:54:20;;;;;;;20.75;6.55;;;;;;;;;;5014601;28;20033;-71
2021/06/24 08:56:47;;;;;;;29.85;7.45;;;;;;;;;;5015790;28;20022;-69
2021/06/24 08:59:13;;;;;;;28.23;6.93;;;;;;;;;;5014643;28;20026;-71
2021/06/24 09:01:51;;;;;;;34.17;7.78;;;;;;;;;;5015724;28;20022;-70
2021/06/24 09:04:19;;;;;;;32.22;6.35;;;;;;;;;;5015479;28;20022;-69
2021/06/24 09:06:45;;;;;;;30.40;6.38;;;;;;;;;;5014504;28;20022;-70
2021/06/24 09:09:16;;;;;;;29.83;7.18;;;;;;;;;;5015589;28;20030;-69
2021/06/24 09:11:47;;;;;;;24.70;7.38;;;;;;;;;;5015789;28;20026;-69
2021/06/24 09:14:16;;;;;;;;;;;;;;;;;;5016096;28;20362;-71
2021/06/24 09:16:43;;;;;;;29.60;6.18;;;;;;;;;;5015457;28;19905;-70
2021/06/24 09:19:14;;;;;;;30.73;7.15;;;;;;;;;;5015358;28;20037;-67
2021/06/24 09:21:41;;;;;;;32.50;7.18;;;;;;;;;;5014122;28;20022;-69
2021/06/24 09:24:25;;;;;;;31.55;7.10;;;;;;;;;;5015340;28;20060;-67
2021/06/24 09:26:51;;;;;;;27.27;7.05;;;;;;;;;;5013710;28;20076;-68
2021/06/24 09:29:18;;;;;;;28.08;6.90;;;;;;;;;;5013572;28;20375;-68
2021/06/24 09:31:48;;;;;;;30.33;8.40;;;;;;;;;;5013528;28;20026;-69
2021/06/24 09:34:15;;;;;;;35.10;7.75;;;;;;;;;;5014631;28;20049;-69
2021/06/24 09:36:43;;;;;;;28.67;7.07;;;;;;;;;;5015082;28;20022;-69
2021/06/24 09:39:19;;;;;;;36.55;7.43;;;;;;;;;;5015034;28;20030;-70
2021/06/24 09:41:59;;;;;;;26.23;6.65;;;;;;;;;;5015087;28;20045;-69
2021/06/24 09:44:25;;;;;;;31.42;7.57;;;;;;;;;;5015021;28;20057;-69
2021/06/24 09:46:52;;;;;;;37.88;7.85;;;;;;;;;;5014970;28;20490;-70
2021/06/24 09:49:26;;;;;;;40.03;6.88;;;;;;;;;;5013590;28;20033;-69
2021/06/24 09:51:53;;;;;;;27.92;6.50;;;;;;;;;;5013963;28;20026;-71
2021/06/24 09:54:20;;;;;;;33.15;7.93;;;;;;;;;;5014467;28;20385;-68
2021/06/24 09:56:51;;;;;;;32.40;6.65;;;;;;;;;;5014629;28;20493;-69
2021/06/24 09:59:18;;;;;;;32.75;7.18;;;;;;;;;;5014768;28;20029;-69
2021/06/24 10:01:49;;;;;;;26.75;7.07;;;;;;;;;;5014654;28;20355;-69
2021/06/24 10:04:18;;;;;;;29.52;7.00;;;;;;;;;;5018479;28;20117;-70
2021/06/24 10:06:46;;;;;;;27.73;6.03;;;;;;;;;;5020789;28;20028;-67
2021/06/24 10:09:13;;;;;;;29.63;6.93;;;;;;;;;;5022206;28;20106;-68
2021/06/24 10:11:39;;;;;;;26.45;6.60;;;;;;;;;;5024589;28;20053;-70
2021/06/24 10:14:06;;;;;;;34.58;7.43;;;;;;;;;;5022093;28;20390;-70
2021/06/24 10:16:34;;;;;;;29.63;6.55;;;;;;;;;;5027966;28;20096;-68
2021/06/24 10:19:00;;;;;;;31.38;7.18;;;;;;;;;;5030007;28;20383;-68
2021/06/24 10:21:28;;;;;;;31.08;6.90;;;;;;;;;;5013818;28;20522;-65
2021/06/24 10:23:56;;;;;;;35.00;6.68;;;;;;;;;;5014088;28;20030;-65
2021/06/24 10:26:23;;;;;;;25.83;6.13;;;;;;;;;;5013907;28;20029;-64
2021/06/24 10:29:07;;;;;;;32.60;6.45;;;;;;;;;;5013759;28;20029;-66
2021/06/24 10:31:35;;;;;;;26.20;6.82;;;;;;;;;;5014589;28;20430;-66
2021/06/24 10:34:03;;;;;;;43.55;6.60;;;;;;;;;;5011186;28;20095;-66
2021/06/24 10:36:30;;;;;;;28.75;6.47;;;;;;;;;;5013733;28;20053;-64
2021/06/24 10:38:57;;;;;;;22.55;6.32;;;;;;;;;;5012494;28;20384;-65
2021/06/24 10:41:24;;;;;;;36.17;6.53;;;;;;;;;;5013638;28;20109;-65
2021/06/24 10:43:54;;;;;;;40.33;6.72;;;;;;;;;;5013833;28;20018;-67
2021/06/24 10:46:22;;;;;;;39.63;7.35;;;;;;;;;;5011941;28;20121;-68
2021/06/24 10:48:48;;;;;;;32.70;7.10;;;;;;;;;;5013232;28;20371;-69
2021/06/24 10:51:16;;;;;;;33.83;7.43;;;;;;;;;;5013557;28;20030;-67
2021/06/24 10:53:49;;;;;;;42.42;7.15;;;;;;;;;;5012795;28;20022;-67
2021/06/24 10:56:29;;;;;;;40.67;6.70;;;;;;;;;;5013514;28;20037;-67
2021/06/24 10:58:56;;;;;;;48.93;7.53;;;;;;;;;;5013493;28;20022;-67
2021/06/24 11:01:39;;;;;;;39.22;6.75;;;;;;;;;;5013493;28;20018;-67
2021/06/24 11:04:05;;;;;;;30.50;7.18;;;;;;;;;;5012114;28;20095;-66
2021/06/24 11:06:39;;;;;;;33.50;6.45;;;;;;;;;;5013353;28;20022;-66
2021/06/24 11:09:13;;;;;;;39.58;8.13;;;;;;;;;;5013483;28;20099;-66
2021/06/24 11:11:44;;;;;;;39.17;6.40;;;;;;;;;;5013393;28;20041;-66
2021/06/24 11:14:14;;;;;;;31.77;6.72;;;;;;;;;;5012768;28;20160;-65
2021/06/24 11:16:41;;;;;;;36.30;7.93;;;;;;;;;;5013327;28;20490;-68
2021/06/24 11:19:10;;;;;;;38.72;7.47;;;;;;;;;;5013370;28;20029;-65
2021/06/24 11:21:36;;;;;;;32.42;6.88;;;;;;;;;;5013050;28;20040;-66
2021/06/24 11:24:08;;;;;;;36.80;7.57;;;;;;;;;;5012754;28;20033;-67
2021/06/24 11:26:38;;;;;;;38.60;7.82;;;;;;;;;;5013125;28;20022;-68
2021/06/24 11:29:09;;;;;;;32.72;7.00;;;;;;;;;;5012703;28;20088;-65
2021/06/24 11:31:40;;;;;;;34.15;6.43;;;;;;;;;;5011934;28;20116;-65
2021/06/24 11:36:36;;;;;;;27.13;7.10;;;;;;;;;;5012803;28;20034;-66
2021/06/24 11:39:04;;;;;;;30.00;7.22;;;;;;;;;;5012673;28;20032;-66
2021/06/24 11:41:30;;;;;;;33.85;6.68;;;44.80;48.70;;;;;;5012355;28;20022;-68
2021/06/24 11:43:59;;;;;;;38.03;7.72;;;45.20;49.30;;;;;;5012779;28;20121;-66
2021/06/24 11:46:28;;;;;;;35.90;6.88;;;45.50;49.30;;;;;;5012980;28;20070;-66
2021/06/24 12:05:10;;;;;;;30.77;6.18;;;47.40;47.50;;;;;;5012173;28;20026;-66
2021/06/24 12:07:37;;;;;;;34.72;6.60;;;47.60;47.00;;;;;;5012821;28;20088;-68
2021/06/24 12:10:05;;;;;;;34.00;6.75;;;;;;;;;;5012473;28;20129;-70
2021/06/24 12:12:32;;;;;;;30.95;6.45;;;48.20;82.80;;;;;;5011003;28;20026;-70
2021/06/24 12:15:02;;;;;;;36.47;6.38;;;48.50;43.90;;;;;;5010804;28;20028;-71
2021/06/24 12:17:30;;;;;;;32.75;7.07;;;48.50;45.00;;;;;;5011070;28;20108;-70
2021/06/24 12:20:05;;;;;;;29.10;6.80;;;48.60;43.90;;;;;;5013069;28;20282;-70
2021/06/24 12:22:38;;;;;;;40.30;8.55;;;48.90;44.40;;;;;;5012716;28;20084;-67
2021/06/24 12:25:14;;;;;;;31.88;6.95;;;48.50;44.80;;;;;;5011442;28;20401;-71
2021/06/24 12:27:48;;;;;;;29.33;6.47;;;48.50;45.30;;;;;;5012574;28;20022;-68
2021/06/24 12:30:18;;;;;;;37.47;7.82;;;48.90;44.80;;;;;;5012467;28;20101;-67
2021/06/24 12:33:03;;;;;;;35.60;7.07;;;49.20;43.90;;;;;;5011144;28;20025;-67
2021/06/24 12:35:30;;;;;;;38.17;7.60;;;;;;;;;;5010792;28;20100;-66
2021/06/24 12:38:00;;;;;;;38.55;6.47;;;49.70;41.50;;;;;;5013173;28;20382;-65
2021/06/24 12:40:32;;;;;;;36.95;8.25;;;49.90;43.00;;;;;;5012254;28;20375;-67
2021/06/24 12:42:59;;;;;;;29.02;7.30;;;50.10;41.70;;;;;;5016082;28;20036;-67
2021/06/24 12:45:31;;;;;;;32.75;7.38;;;50.00;41.30;;;;;;5015681;28;20445;-66
2021/06/24 12:47:58;;;;;;;33.17;6.65;;;50.00;41.50;;;;;;5016188;28;20109;-66
2021/06/24 12:50:33;;;;;;;39.17;7.05;;;50.40;41.90;;;;;;5016058;28;20537;-68
2021/06/24 12:53:03;;;;;;;45.15;7.43;;;50.30;40.60;;;;;;5014730;28;20038;-68
2021/06/24 12:55:41;;;;;;;;;;;50.60;40.90;;;;;;5016260;28;20036;-67
2021/06/24 12:58:32;;;;;;;33.50;7.63;;;50.70;41.40;;;;;;5014633;28;20008;-69
2021/06/24 13:01:13;;;;;;;37.63;7.80;;;50.70;41.80;;;;;;5014640;28;20065;-70
2021/06/24 13:03:41;;;;;;;33.42;7.47;;;50.90;39.60;;;;;;5014534;28;20034;-67
2021/06/24 13:06:27;;;;;;;38.47;7.93;;;51.30;40.00;;;;;;5015806;28;20041;-67
2021/06/24 13:09:15;;;;;;;36.40;6.80;;;50.20;40.70;;;;;;5015728;28;20038;-67
2021/06/24 13:11:45;;;;;;;41.17;7.47;;;;;;;;;;5014430;28;20037;-67
2021/06/24 13:14:19;;;;;;;35.45;6.63;;;45.70;63.60;;;;;;5013987;28;20026;-67
2021/06/24 13:17:00;;;;;;;33.35;7.68;;;45.10;47.30;;;;;;5014111;28;20034;-67
2021/06/24 13:19:30;;;;;;;40.10;7.55;;;;;;;;;;5015297;28;20037;-66
2021/06/24 13:22:19;;;;;;;30.23;6.85;;;44.20;46.10;;;;;;5015609;28;20022;-68
2021/06/24 13:24:57;;;;;;;34.10;7.30;;;;;;;;;;5013807;28;20018;-67
2021/06/24 13:27:29;;;;;;;34.45;7.22;;;43.00;55.40;;;;;;5014789;28;20029;-66
2021/06/24 13:30:02;;;;;;;32.42;7.28;;;42.80;68.30;;;;;;5014043;28;20036;-66
2021/06/24 13:32:28;;;;;;;26.10;6.43;;;;;;;;;;5015334;28;20056;-65
2021/06/24 13:34:54;;;;;;;34.28;6.25;;;;;;;;;;5014853;28;20514;-68
2021/06/24 13:37:21;;;;;;;29.27;7.13;;;;;;;;;;5015144;28;20026;-68
2021/06/24 13:39:48;;;;;;;40.33;8.07;;;;;;;;;;5013844;28;20033;-66
2021/06/24 13:42:15;;;;;;;37.15;7.00;;;;;;;;;;5015144;28;20068;-66
2021/06/24 13:44:42;;;;;;;35.50;7.70;;;;;;;;;;5015124;28;20030;-65
2021/06/24 13:47:08;;;;;;;42.17;7.35;;;;;;;;;;5015015;28;20101;-66
2021/06/24 13:49:34;;;;;;;36.10;6.60;;;;;;;;;;5012938;28;20022;-66
2021/06/24 13:52:01;;;;;;;40.72;8.00;;;;;;;;;;5014047;28;20474;-66
2021/06/24 13:54:28;;;;;;;37.22;7.78;;;;;;;;;;5014813;28;20117;-67
2021/06/24 13:56:55;;;;;;;38.70;7.82;;;;;;;;;;5014811;28;20054;-67
2021/06/24 13:59:22;;;;;;;41.92;7.72;;;;;;;;;;5013462;28;20386;-67
2021/06/24 14:01:49;;;;;;;43.13;7.32;;;;;;;;;;5014748;28;20114;-67
2021/06/24 14:04:15;;;;;;;31.02;8.00;;;;;;;;;;5014612;28;20025;-67
2021/06/24 14:06:42;;;;;;;29.25;7.80;;;;;;;;;;5013326;28;20458;-67
2021/06/24 14:09:12;;;;;;;40.65;6.72;;;;;;;;;;5013106;28;20472;-66
2021/06/24 14:11:38;;;;;;;;;;;;;;;;;;5012457;28;20030;-66
2021/06/24 14:14:05;;;;;;;42.40;6.70;;;;;;;;;;5012888;28;19928;-66
2021/06/24 14:16:32;;;;;;;41.08;8.05;;;;;;;;;;5011474;28;20018;-66
2021/06/24 14:18:59;;;;;;;36.42;8.10;;;;;;;;;;5012193;28;20026;-66
2021/06/24 14:21:27;;;;;;;40.03;8.38;;;;;;;;;;5013956;28;20022;-66
2021/06/24 14:23:56;;;;;;;40.13;6.47;;;;;;;;;;5013029;28;20084;-65
2021/06/24 14:26:23;;;;;;;35.92;7.53;;;;;;;;;;5014349;28;20032;-65
2021/06/24 14:28:49;;;;;;;39.45;7.78;;;;;;;;;;5014164;28;20022;-66
2021/06/24 14:31:16;;;;;;;45.95;8.30;;;;;;;;;;5011848;28;20068;-66
2021/06/24 14:33:42;;;;;;;34.63;7.43;;;;;;;;;;5013125;28;20032;-67
2021/06/24 14:36:09;;;;;;;39.22;7.05;;;;;;;;;;5014254;28;20042;-66
2021/06/24 14:38:36;;;;;;;39.42;7.65;;;;;;;;;;5014119;28;20030;-67